Kezdőlap
METAR-TAF:

METAR-TAF

Repülőterek :

Sirri Island, Irán

földrajzi szélesség: 25-54-34N, földrajzi hosszúság: 054-32-22E, magasság: 13 m

Jelenlegi meteorológiai megfigyelések

A jelentés 4 órával és 29 perccel ezelõtt készült, 15:00 UTC
Nyugat-délnyugati szél 6 kt
Hőmérséklet 27°C
Páratartalom 70%
Légköri nyomás 1008 hPa
Látótávolság: 2500 m
Száraz légköri homály,

METAR: OIBS 211500Z 24006KT 2500 HZ NSC 27/21 Q1008

Idő: 23:59 (19:29 UTC)


TAF: hiányzik

Meteorológiai megfigyelések és előrejelzések több, mint 4000 repülőtéren (METAR és TAF jelentéseket).

A térképen piros és sárga pontok jelzik az elérhető meteorológiai állomásokat.

Mozgassa az egeret a pont fölött, hogy megjelenjen az állomás neve.

Azután kattintson az időjárási megfigyelések és előrejelzések megtekintéséhez.

A térkép megváltoztatása: kattintson a fekete keresztel jelölt zöld gombra ráközelítéshez, a vonallal jelölt zöld gombra távolításhoz, vagy a zöld nyilakra a szomszédos térképek eléréséhez.


METAR-TAF: